createdAt,value
2023-05-17T00:00:07.174Z,71.46
2023-05-17T00:02:59.454Z,71.39
2023-05-17T00:05:31.869Z,71.68
2023-05-17T00:08:04.035Z,71.56
2023-05-17T00:10:36.488Z,71.21
2023-05-17T00:13:08.837Z,70.99
2023-05-17T00:15:41.099Z,70.55
2023-05-17T00:18:13.463Z,69.90
2023-05-17T00:20:45.618Z,70.23
2023-05-17T00:23:18.404Z,69.84
2023-05-17T00:25:51.226Z,69.67
2023-05-17T00:28:23.732Z,69.69
2023-05-17T00:30:56.286Z,69.53
2023-05-17T00:33:28.665Z,69.45
2023-05-17T00:36:01.283Z,69.85
2023-05-17T00:38:33.486Z,69.98
2023-05-17T00:41:07.034Z,69.42
2023-05-17T00:43:39.497Z,69.39
2023-05-17T00:46:11.800Z,68.52
2023-05-17T00:48:44.926Z,68.18
2023-05-17T00:51:17.919Z,67.74
2023-05-17T00:53:51.328Z,67.60
2023-05-17T00:56:24.940Z,67.41
2023-05-17T00:59:10.794Z,67.38
2023-05-17T01:02:06.521Z,66.88
2023-05-17T01:04:42.621Z,66.76
2023-05-17T01:07:14.833Z,65.87
2023-05-17T01:09:47.302Z,65.50
2023-05-17T01:12:31.561Z,65.26
2023-05-17T01:15:14.518Z,64.89
2023-05-17T01:17:55.813Z,64.09
2023-05-17T01:20:44.537Z,63.99
2023-05-17T01:23:46.456Z,63.14
2023-05-17T01:26:25.397Z,63.01
2023-05-17T01:29:00.972Z,62.53
2023-05-17T01:31:33.953Z,61.76
2023-05-17T01:34:10.135Z,61.33
2023-05-17T01:36:43.378Z,61.40
2023-05-17T01:39:15.657Z,60.99
2023-05-17T01:41:56.464Z,61.29
2023-05-17T01:44:34.418Z,60.81
2023-05-17T01:47:12.471Z,60.92
2023-05-17T01:49:49.120Z,60.53
2023-05-17T01:52:31.777Z,60.74
2023-05-17T01:55:10.755Z,60.78
2023-05-17T01:57:44.946Z,60.56
2023-05-17T02:00:19.092Z,60.70
2023-05-17T02:02:51.531Z,60.55
2023-05-17T02:05:26.841Z,60.70
2023-05-17T02:07:59.734Z,60.43
2023-05-17T02:10:32.647Z,60.27
2023-05-17T02:13:05.119Z,60.09
2023-05-17T02:15:37.367Z,60.10
2023-05-17T02:18:13.129Z,60.26
2023-05-17T02:20:45.633Z,60.28
2023-05-17T02:23:19.564Z,60.50
2023-05-17T02:25:52.146Z,60.63
2023-05-17T02:28:24.790Z,60.85
2023-05-17T02:30:57.697Z,60.71
2023-05-17T02:33:30.057Z,61.05
2023-05-17T02:36:02.531Z,60.93
2023-05-17T02:38:43.059Z,60.98
2023-05-17T02:41:19.530Z,61.41
2023-05-17T02:43:52.428Z,61.49
2023-05-17T02:46:25.062Z,61.56
2023-05-17T02:48:57.635Z,62.15
2023-05-17T02:51:31.216Z,62.03
2023-05-17T02:54:03.728Z,61.91
2023-05-17T02:56:36.762Z,61.97
2023-05-17T02:59:09.925Z,62.12
2023-05-17T03:01:45.268Z,62.14
2023-05-17T03:04:20.435Z,62.37
2023-05-17T03:06:56.240Z,62.79
2023-05-17T03:09:46.620Z,62.97
2023-05-17T03:12:23.512Z,63.11
2023-05-17T03:14:56.657Z,63.20
2023-05-17T03:17:29.860Z,63.31
2023-05-17T03:20:02.758Z,63.90
2023-05-17T03:22:35.782Z,64.27
2023-05-17T03:25:09.545Z,63.67
2023-05-17T03:27:46.219Z,63.65
2023-05-17T03:30:34.929Z,63.18
2023-05-17T03:33:08.048Z,62.88
2023-05-17T03:35:40.816Z,62.85
2023-05-17T03:38:17.634Z,63.14
2023-05-17T03:40:52.621Z,63.05
2023-05-17T03:43:25.362Z,63.09
2023-05-17T03:45:58.091Z,62.97
2023-05-17T03:48:35.184Z,62.97
2023-05-17T03:51:09.176Z,63.14
2023-05-17T03:53:43.682Z,63.27
2023-05-17T03:56:18.171Z,63.89
2023-05-17T03:58:50.438Z,64.38
2023-05-17T04:01:22.976Z,63.71
2023-05-17T04:03:55.747Z,63.52
2023-05-17T04:06:28.420Z,62.95
2023-05-17T04:09:00.961Z,62.97
2023-05-17T04:11:34.448Z,62.89
2023-05-17T04:14:07.758Z,63.08
2023-05-17T04:16:40.598Z,63.37
2023-05-17T04:19:13.347Z,63.38
2023-05-17T04:21:47.460Z,63.68
2023-05-17T04:24:21.998Z,63.61
2023-05-17T04:26:53.493Z,63.88
2023-05-17T04:29:29.251Z,63.99
2023-05-17T04:32:02.184Z,63.23
2023-05-17T04:34:35.434Z,63.39
2023-05-17T04:37:08.704Z,63.35
2023-05-17T04:39:41.976Z,63.14
2023-05-17T04:42:14.809Z,63.32
2023-05-17T04:44:51.001Z,63.00
2023-05-17T04:47:24.486Z,63.04
2023-05-17T04:49:58.051Z,63.24
2023-05-17T04:52:30.786Z,63.26
2023-05-17T04:55:03.769Z,63.32
2023-05-17T04:57:36.618Z,63.52
2023-05-17T05:00:15.428Z,63.93
2023-05-17T05:02:50.113Z,64.04
2023-05-17T05:05:27.608Z,63.99
2023-05-17T05:08:00.484Z,63.97
2023-05-17T05:10:33.506Z,64.53
2023-05-17T05:13:06.142Z,64.38
2023-05-17T05:15:39.750Z,64.11
2023-05-17T05:18:12.383Z,64.35
2023-05-17T05:20:45.108Z,64.24
2023-05-17T05:23:18.823Z,64.37
2023-05-17T05:25:53.334Z,64.37
2023-05-17T05:28:26.288Z,64.18
2023-05-17T05:31:01.484Z,64.30
2023-05-17T05:33:39.842Z,64.31
2023-05-17T05:36:13.397Z,64.23
2023-05-17T05:38:46.549Z,64.21
2023-05-17T05:41:19.322Z,64.02
2023-05-17T05:43:51.994Z,64.16
2023-05-17T05:46:24.746Z,64.32
2023-05-17T05:48:59.865Z,64.57
2023-05-17T05:51:32.851Z,64.58
2023-05-17T05:54:06.661Z,64.50
2023-05-17T05:56:42.006Z,64.12
2023-05-17T05:59:16.191Z,64.23
2023-05-17T06:01:48.496Z,63.88
2023-05-17T06:04:22.722Z,64.24
2023-05-17T06:07:02.484Z,64.18
2023-05-17T06:09:34.940Z,64.29
2023-05-17T06:12:07.887Z,64.02
2023-05-17T06:14:40.470Z,63.53
2023-05-17T06:17:12.873Z,63.84
2023-05-17T06:19:45.381Z,63.91
2023-05-17T06:22:17.880Z,64.27
2023-05-17T06:24:50.210Z,63.83
2023-05-17T06:27:22.549Z,63.97
2023-05-17T06:29:54.905Z,63.99
2023-05-17T06:32:27.318Z,63.41
2023-05-17T06:35:00.034Z,63.07
2023-05-17T06:37:33.100Z,63.26
2023-05-17T06:40:31.674Z,63.98
2023-05-17T06:43:02.810Z,63.39
2023-05-17T06:45:37.936Z,63.68
2023-05-17T06:48:10.448Z,64.19
2023-05-17T06:50:42.856Z,64.11
2023-05-17T06:53:15.452Z,64.10
2023-05-17T06:55:47.871Z,63.19
2023-05-17T06:58:20.261Z,63.26
2023-05-17T07:00:52.702Z,63.33
2023-05-17T07:03:25.130Z,63.22
2023-05-17T07:05:57.562Z,63.30
2023-05-17T07:08:30.119Z,64.31
2023-05-17T07:11:03.084Z,63.27
2023-05-17T07:13:36.350Z,63.17
2023-05-17T07:16:10.155Z,62.50
2023-05-17T07:18:42.436Z,62.59
2023-05-17T07:21:14.996Z,62.36
2023-05-17T07:23:49.402Z,62.06
2023-05-17T07:26:22.324Z,60.70
2023-05-17T07:28:54.827Z,61.78
2023-05-17T07:31:27.180Z,62.76
2023-05-17T07:33:59.790Z,61.69
2023-05-17T07:36:32.760Z,61.18
2023-05-17T07:39:06.039Z,59.43
2023-05-17T07:41:38.619Z,58.45
2023-05-17T07:44:10.868Z,58.01
2023-05-17T07:46:43.299Z,57.30
2023-05-17T07:49:16.246Z,57.93
2023-05-17T07:51:48.647Z,58.21
2023-05-17T07:54:28.158Z,58.24
2023-05-17T07:57:00.633Z,58.28
2023-05-17T07:59:33.331Z,58.18
2023-05-17T08:02:06.202Z,57.70
2023-05-17T08:04:38.557Z,58.26
2023-05-17T08:07:11.273Z,57.84
2023-05-17T08:09:45.574Z,57.51
2023-05-17T08:12:18.008Z,57.56
2023-05-17T08:14:50.279Z,58.02
2023-05-17T08:17:25.018Z,58.12
2023-05-17T08:19:57.473Z,57.27
2023-05-17T08:22:30.026Z,57.62
2023-05-17T08:25:02.407Z,56.50
2023-05-17T08:27:34.848Z,57.28
2023-05-17T08:30:11.885Z,57.22
2023-05-17T08:32:47.529Z,58.35
2023-05-17T08:35:20.479Z,58.48
2023-05-17T08:37:53.019Z,58.72
2023-05-17T08:40:26.152Z,58.58
2023-05-17T08:42:59.518Z,58.11
2023-05-17T08:45:33.982Z,57.14
2023-05-17T08:48:07.554Z,56.84
2023-05-17T08:50:41.222Z,56.56
2023-05-17T08:53:14.587Z,56.93
2023-05-17T08:55:52.325Z,57.25
2023-05-17T08:58:32.362Z,56.59
2023-05-17T09:01:05.713Z,56.29
2023-05-17T09:03:41.552Z,57.02
2023-05-17T09:06:14.884Z,56.63
2023-05-17T09:08:48.318Z,56.40
2023-05-17T09:11:28.694Z,56.72
2023-05-17T09:14:04.885Z,56.63
2023-05-17T09:16:38.731Z,56.33
2023-05-17T09:19:15.178Z,56.24
2023-05-17T09:21:49.945Z,56.31
2023-05-17T09:24:31.139Z,56.32
2023-05-17T09:27:07.405Z,56.07
2023-05-17T09:29:42.475Z,56.91
2023-05-17T09:32:18.834Z,57.34
2023-05-17T09:34:52.709Z,57.13
2023-05-17T09:37:26.739Z,57.50
2023-05-17T09:39:59.641Z,58.54
2023-05-17T09:42:36.778Z,56.79
2023-05-17T09:45:10.517Z,55.40
2023-05-17T09:47:43.079Z,55.12
2023-05-17T09:50:20.542Z,55.20
2023-05-17T09:52:52.912Z,54.31
2023-05-17T09:55:29.776Z,54.49
2023-05-17T09:58:06.451Z,53.56
2023-05-17T10:00:39.478Z,54.21
2023-05-17T10:03:14.214Z,54.58
2023-05-17T10:05:47.878Z,54.28
2023-05-17T10:08:23.223Z,54.64
2023-05-17T10:10:56.951Z,55.34
2023-05-17T10:13:37.030Z,55.47
2023-05-17T10:16:10.268Z,55.20
2023-05-17T10:18:43.339Z,55.18
2023-05-17T10:21:16.108Z,55.59
2023-05-17T10:23:49.451Z,56.41
2023-05-17T10:26:22.173Z,56.71
2023-05-17T10:28:56.361Z,56.35
2023-05-17T10:31:30.703Z,55.46
2023-05-17T10:34:04.635Z,55.77
2023-05-17T10:36:37.148Z,55.17
2023-05-17T10:39:11.016Z,55.39
2023-05-17T10:41:48.531Z,55.56
2023-05-17T10:44:21.987Z,55.61
2023-05-17T10:46:59.817Z,55.02
2023-05-17T10:49:36.232Z,54.92
2023-05-17T10:52:17.708Z,54.82
2023-05-17T10:54:51.291Z,54.20
2023-05-17T10:57:49.321Z,54.95
2023-05-17T11:00:31.349Z,55.15
2023-05-17T11:03:16.810Z,54.35
2023-05-17T11:06:24.074Z,52.83
2023-05-17T11:09:17.788Z,52.28
2023-05-17T11:12:09.940Z,51.59
2023-05-17T11:14:55.466Z,51.44
2023-05-17T11:17:29.626Z,51.54
2023-05-17T11:20:31.453Z,52.06
2023-05-17T11:23:05.665Z,51.10
2023-05-17T11:25:39.650Z,50.89
2023-05-17T11:28:19.929Z,51.61
2023-05-17T11:30:53.772Z,51.07
2023-05-17T11:33:41.309Z,51.87
2023-05-17T11:36:22.424Z,52.63
2023-05-17T11:39:13.199Z,52.09
2023-05-17T11:41:53.733Z,50.16
2023-05-17T11:44:31.205Z,48.43
2023-05-17T11:47:09.522Z,49.37
2023-05-17T11:49:42.769Z,50.23
2023-05-17T11:52:17.609Z,49.69
2023-05-17T11:54:51.746Z,48.51
2023-05-17T11:57:24.383Z,47.90
2023-05-17T12:00:04.880Z,46.51
2023-05-17T12:02:44.646Z,46.25
2023-05-17T12:05:22.759Z,46.71
2023-05-17T12:07:55.246Z,45.83
2023-05-17T12:10:27.863Z,45.17
2023-05-17T12:13:00.359Z,46.24
2023-05-17T12:15:33.884Z,46.38
2023-05-17T12:18:06.943Z,45.80
2023-05-17T12:20:39.482Z,46.88
2023-05-17T12:23:12.024Z,45.62
2023-05-17T12:25:44.254Z,45.84
2023-05-17T12:28:22.242Z,45.46
2023-05-17T12:30:58.939Z,46.60
2023-05-17T12:33:33.572Z,44.82
2023-05-17T12:36:07.357Z,43.88
2023-05-17T12:38:41.646Z,44.13
2023-05-17T12:41:15.854Z,45.01
2023-05-17T12:43:48.633Z,45.64
2023-05-17T12:46:23.783Z,45.74
2023-05-17T12:48:56.750Z,45.37
2023-05-17T12:51:29.067Z,45.04
2023-05-17T12:54:01.240Z,44.97
2023-05-17T12:56:33.753Z,44.48
2023-05-17T12:59:13.402Z,44.97
2023-05-17T13:01:48.397Z,44.77
2023-05-17T13:04:22.502Z,45.51
2023-05-17T13:06:56.107Z,45.68
2023-05-17T13:09:31.099Z,45.01
2023-05-17T13:12:06.860Z,44.41
2023-05-17T13:14:44.417Z,44.95
2023-05-17T13:17:21.732Z,45.26
2023-05-17T13:19:55.157Z,43.32
2023-05-17T13:22:27.555Z,43.97
2023-05-17T13:24:59.884Z,43.40
2023-05-17T13:27:32.381Z,44.28
2023-05-17T13:30:05.147Z,44.46
2023-05-17T13:32:37.511Z,43.98
2023-05-17T13:35:11.166Z,43.85
2023-05-17T13:37:43.302Z,43.92
2023-05-17T13:40:17.253Z,43.54
2023-05-17T13:42:49.426Z,42.84
2023-05-17T13:45:21.924Z,43.14
2023-05-17T13:47:54.443Z,43.44
2023-05-17T13:50:27.557Z,44.10
2023-05-17T13:53:01.907Z,43.92
2023-05-17T13:55:34.600Z,44.69
2023-05-17T13:58:07.575Z,43.67
2023-05-17T14:00:42.697Z,43.53
2023-05-17T14:03:15.617Z,42.74
2023-05-17T14:05:50.463Z,42.31
2023-05-17T14:08:22.974Z,43.06
2023-05-17T14:10:55.408Z,44.20
2023-05-17T14:13:28.603Z,43.38
2023-05-17T14:16:00.729Z,42.85
2023-05-17T14:18:33.250Z,44.45
2023-05-17T14:21:07.237Z,44.68
2023-05-17T14:23:39.599Z,43.38
2023-05-17T14:26:12.056Z,44.22
2023-05-17T14:28:44.333Z,44.45
2023-05-17T14:31:16.656Z,44.19
2023-05-17T14:33:49.123Z,42.81
2023-05-17T14:36:21.448Z,42.62
2023-05-17T14:38:53.773Z,42.85
2023-05-17T14:41:26.067Z,44.39
2023-05-17T14:43:58.412Z,43.17
2023-05-17T14:46:30.695Z,42.41
2023-05-17T14:49:03.260Z,42.79
2023-05-17T14:51:35.790Z,43.79
2023-05-17T14:54:08.582Z,43.47
2023-05-17T14:56:40.955Z,43.08
2023-05-17T14:59:13.197Z,43.05
2023-05-17T15:01:45.356Z,43.31
2023-05-17T15:04:18.096Z,43.12
2023-05-17T15:06:51.097Z,42.95
2023-05-17T15:09:24.284Z,43.50
2023-05-17T15:11:56.551Z,43.80
2023-05-17T15:14:28.911Z,43.78
2023-05-17T15:17:02.410Z,43.47
2023-05-17T15:19:34.923Z,43.42
2023-05-17T15:22:07.925Z,44.37
2023-05-17T15:24:40.397Z,43.48
2023-05-17T15:27:15.587Z,43.47
2023-05-17T15:29:47.844Z,43.09
2023-05-17T15:32:20.085Z,43.06
2023-05-17T15:34:52.709Z,42.37
2023-05-17T15:37:25.099Z,42.25
2023-05-17T15:39:57.186Z,43.00
2023-05-17T15:42:29.602Z,42.19
2023-05-17T15:45:02.005Z,42.43
2023-05-17T15:47:43.202Z,42.68
2023-05-17T15:50:16.568Z,42.64
2023-05-17T15:52:49.343Z,43.04
2023-05-17T15:55:21.663Z,42.99
2023-05-17T15:57:54.010Z,42.65
2023-05-17T16:00:27.789Z,42.37
2023-05-17T16:03:00.098Z,43.32
2023-05-17T16:05:33.846Z,44.00
2023-05-17T16:08:06.758Z,44.07
2023-05-17T16:10:39.656Z,44.67
2023-05-17T16:13:11.909Z,44.76
2023-05-17T16:15:44.283Z,44.45
2023-05-17T16:18:17.078Z,45.32
2023-05-17T16:20:57.965Z,44.63
2023-05-17T16:23:30.649Z,45.36
2023-05-17T16:26:03.147Z,45.33
2023-05-17T16:28:37.060Z,44.57
2023-05-17T16:31:09.811Z,44.84
2023-05-17T16:33:42.662Z,44.97
2023-05-17T16:36:15.126Z,45.92
2023-05-17T16:38:47.462Z,46.27
2023-05-17T16:41:20.204Z,46.27
2023-05-17T16:43:52.623Z,46.04
2023-05-17T16:46:25.267Z,45.70
2023-05-17T16:48:57.795Z,45.45
2023-05-17T16:51:30.274Z,45.64
2023-05-17T16:54:03.412Z,46.60
2023-05-17T16:56:35.865Z,46.51
2023-05-17T16:59:08.162Z,46.56
2023-05-17T17:01:40.376Z,46.39
2023-05-17T17:04:12.838Z,46.03
2023-05-17T17:06:45.141Z,46.20
2023-05-17T17:09:17.467Z,46.04
2023-05-17T17:11:49.583Z,46.59
2023-05-17T17:14:22.516Z,47.55
2023-05-17T17:16:54.897Z,48.04
2023-05-17T17:19:27.734Z,47.49
2023-05-17T17:22:00.264Z,47.70
2023-05-17T17:24:33.062Z,47.71
2023-05-17T17:27:05.734Z,48.22
2023-05-17T17:29:38.218Z,46.73
2023-05-17T17:32:11.596Z,47.19
2023-05-17T17:34:44.485Z,46.52
2023-05-17T17:37:17.015Z,47.14
2023-05-17T17:39:49.450Z,47.54
2023-05-17T17:42:22.018Z,46.66
2023-05-17T17:44:55.199Z,46.59
2023-05-17T17:47:27.475Z,46.96
2023-05-17T17:50:00.024Z,46.89
2023-05-17T17:52:32.702Z,46.03
2023-05-17T17:55:06.142Z,46.33
2023-05-17T17:57:38.580Z,45.97
2023-05-17T18:00:16.171Z,45.29
2023-05-17T18:02:48.483Z,45.24
2023-05-17T18:05:20.917Z,45.41
2023-05-17T18:07:53.600Z,45.39
2023-05-17T18:10:25.943Z,45.93
2023-05-17T18:12:58.323Z,45.09
2023-05-17T18:15:31.334Z,45.55
2023-05-17T18:18:04.182Z,45.79
2023-05-17T18:20:38.451Z,46.10
2023-05-17T18:23:11.081Z,46.78
2023-05-17T18:25:43.914Z,46.97
2023-05-17T18:28:18.252Z,47.27
2023-05-17T18:30:52.288Z,47.24
2023-05-17T18:33:24.992Z,46.92
2023-05-17T18:35:58.389Z,47.44
2023-05-17T18:38:31.483Z,48.33
2023-05-17T18:41:04.084Z,48.81
2023-05-17T18:43:36.610Z,49.16
2023-05-17T18:46:09.691Z,49.54
2023-05-17T18:48:42.071Z,49.63
2023-05-17T18:51:15.883Z,49.59
2023-05-17T18:53:48.245Z,49.87
2023-05-17T18:56:23.439Z,50.20
2023-05-17T18:58:56.322Z,50.03
2023-05-17T19:01:29.148Z,50.02
2023-05-17T19:04:01.497Z,50.56
2023-05-17T19:06:34.239Z,51.06
2023-05-17T19:09:06.566Z,51.40
2023-05-17T19:11:38.995Z,51.34
2023-05-17T19:14:11.607Z,51.90
2023-05-17T19:16:43.950Z,52.41
2023-05-17T19:19:16.399Z,52.16
2023-05-17T19:21:50.451Z,52.52
2023-05-17T19:24:23.016Z,51.75
2023-05-17T19:26:55.786Z,52.37
2023-05-17T19:29:29.716Z,52.66
2023-05-17T19:32:02.039Z,52.47
2023-05-17T19:34:34.617Z,52.28
2023-05-17T19:37:07.318Z,51.86
2023-05-17T19:39:39.864Z,52.10
2023-05-17T19:42:13.050Z,52.52
2023-05-17T19:44:45.617Z,52.93
2023-05-17T19:47:18.335Z,52.89
2023-05-17T19:49:50.732Z,53.99
2023-05-17T19:52:23.446Z,54.07
2023-05-17T19:54:59.006Z,54.44
2023-05-17T19:57:32.103Z,54.63
2023-05-17T20:00:04.951Z,54.23
2023-05-17T20:02:37.464Z,54.47
2023-05-17T20:05:10.861Z,53.78
2023-05-17T20:07:43.418Z,52.71
2023-05-17T20:10:16.099Z,53.06
2023-05-17T20:12:48.902Z,53.44
2023-05-17T20:15:22.778Z,53.84
2023-05-17T20:17:55.348Z,54.17
2023-05-17T20:20:27.754Z,54.35
2023-05-17T20:23:00.297Z,54.79
2023-05-17T20:25:32.855Z,54.99
2023-05-17T20:28:05.723Z,55.21
2023-05-17T20:30:37.979Z,54.36
2023-05-17T20:33:10.832Z,54.53
2023-05-17T20:35:44.035Z,54.37
2023-05-17T20:38:16.737Z,54.09
2023-05-17T20:40:48.921Z,53.65
2023-05-17T20:43:21.442Z,53.32
2023-05-17T20:45:53.808Z,53.63
2023-05-17T20:48:26.493Z,54.16
2023-05-17T20:50:58.869Z,54.01
2023-05-17T20:53:31.772Z,54.35
2023-05-17T20:56:04.547Z,54.53
2023-05-17T20:58:37.241Z,54.43
2023-05-17T21:01:10.178Z,55.03
2023-05-17T21:03:43.319Z,55.31
2023-05-17T21:06:15.857Z,55.39
2023-05-17T21:08:48.407Z,54.96
2023-05-17T21:11:22.107Z,54.44
2023-05-17T21:13:54.502Z,54.86
2023-05-17T21:16:26.756Z,55.24
2023-05-17T21:18:59.160Z,55.01
2023-05-17T21:21:31.278Z,55.06
2023-05-17T21:24:03.567Z,55.27
2023-05-17T21:26:36.972Z,56.00
2023-05-17T21:29:12.175Z,56.50
2023-05-17T21:31:44.283Z,56.29
2023-05-17T21:34:16.428Z,55.37
2023-05-17T21:36:48.602Z,54.79
2023-05-17T21:39:20.636Z,54.00
2023-05-17T21:41:53.076Z,53.44
2023-05-17T21:44:25.461Z,52.87
2023-05-17T21:46:59.074Z,52.89
2023-05-17T21:49:31.554Z,52.68
2023-05-17T21:52:03.688Z,52.40
2023-05-17T21:54:36.225Z,52.39
2023-05-17T21:57:08.696Z,52.22
2023-05-17T21:59:41.064Z,52.28
2023-05-17T22:02:13.442Z,52.15
2023-05-17T22:04:45.684Z,52.38
2023-05-17T22:07:17.996Z,52.47
2023-05-17T22:12:50.186Z,52.51
2023-05-17T22:15:23.407Z,52.55
2023-05-17T22:17:56.023Z,52.90
2023-05-17T22:20:29.468Z,52.65
2023-05-17T22:23:03.154Z,52.40
2023-05-17T22:25:35.618Z,52.36
2023-05-17T22:28:07.924Z,52.86
2023-05-17T22:30:40.941Z,53.36
2023-05-17T22:33:16.432Z,53.91
2023-05-17T22:35:53.645Z,53.88
2023-05-17T22:38:26.091Z,53.78
2023-05-17T22:40:58.382Z,54.80
2023-05-17T22:43:30.751Z,55.00
2023-05-17T22:46:03.081Z,55.29
2023-05-17T22:48:37.464Z,55.34
2023-05-17T22:51:10.096Z,55.80
2023-05-17T22:53:42.473Z,55.90
2023-05-17T22:56:15.104Z,56.36
2023-05-17T22:58:47.556Z,56.40
2023-05-17T23:01:20.113Z,56.33
2023-05-17T23:03:52.414Z,56.55
2023-05-17T23:06:26.248Z,56.91
2023-05-17T23:09:00.320Z,57.09
2023-05-17T23:11:35.117Z,57.18
2023-05-17T23:14:05.942Z,56.84
2023-05-17T23:16:38.382Z,56.66
2023-05-17T23:19:10.851Z,55.72
2023-05-17T23:21:43.705Z,57.28
2023-05-17T23:24:16.228Z,57.17
2023-05-17T23:26:48.910Z,57.18
2023-05-17T23:29:21.591Z,57.34
2023-05-17T23:31:54.493Z,56.98
2023-05-17T23:34:26.870Z,56.60
2023-05-17T23:36:59.261Z,56.67
2023-05-17T23:39:31.549Z,57.42
2023-05-17T23:42:03.844Z,56.68
2023-05-17T23:44:36.001Z,56.64
2023-05-17T23:47:10.419Z,56.32
2023-05-17T23:49:42.760Z,56.65
2023-05-17T23:52:15.146Z,56.98
2023-05-17T23:54:48.439Z,57.63
2023-05-17T23:57:20.621Z,57.65
2023-05-17T23:59:53.403Z,57.81
